Tallassee, Tennessee
Current Conditions -  °F | °C
As of 3:53 PM on Thursday 23 Oct 2014 (Local Time) from KTYS Reporting Station
Few Clouds Few Clouds  
Wind Chill: 63°   Ceiling: Unl
Heat Index: 63°   Visibility: 10mi
Dew Point: 42°   Wind: 9mph
Humidity: 46%   Direction: 30°NNE
Pressure: 30.09"   Gusts: NA
Location:  35.55°N, 84.06°W
Report Text: KTYS 231953Z 03008KT 10SM FEW200 17/06 A3009 RMK AO2 SLP187 T01720056
Loading
Personal Weather Stations






























Interactive Weather Map
Tropical Storm Tracking
New forecast layout! Learn more

10-Day Weather Forecast

Advertisements
Track Severe Weather on mobile